Warrenton, NC

2:26 PM EST on February 28, 2015 (GMT -0500)
HEMC - Macon | Change Station
CLOSE
Current Station
Personal Weather Station
Location: Macon, NC
Elevation: 384 ft
Nearby Weather Stations

Elev 384 ft 36.44 °N, 78.07 °W | Updated 1 minute ago

Clear
Clear
35.0 °F
Feels Like 35 °F
N
2.0
Wind Variable Wind from ENE
Gusts 7.0 mph

Today
High -- | Low -- °F
--% Chance of Precip.
Yesterday
High -- | Low -- °F
Precip. -- in
6:44 AM 6:06 PM
Waxing Gibbous, 79% visible
Pressure 30.78 in
Visibility 10.0 miles
Clouds Scattered Clouds 10000 ft
Windchill 35 °F
Dew Point 14 °F
Humidity 41%
Rainfall -999.00 in
Snow Depth Not available.
UV 3.7 out of 12
Pollen 3.10 out of 12
Air Quality Not available.
Flu Activity Not available.
METAR KAVC 281916Z AUTO 00000KT 10SM SCT100 00/M13 A3078 RMK AO2 T00041134

More Conditions Fewer Conditions

Pressure 30.78 in
Visibility 10.0 miles
Clouds Scattered Clouds 10000 ft
Windchill 35 °F
Dew Point 14 °F
Humidity 41%
Rainfall -999.00 in
Snow Depth Not available.
UV 3.7 out of 12
Pollen 3.10 out of 12
Air Quality Not available.
Flu Activity Not available.
METAR KAVC 281916Z AUTO 00000KT 10SM SCT100 00/M13 A3078 RMK AO2 T00041134

More Conditions Fewer Conditions

10-Day Weather Forecast

Almanac

Astronomy

Feb. 28, 2015 Rise Set
Actual Time
Civil Twilight
Nautical Twilight
Astronomical Twilight
Moon
Length of Visible Light
Length of Day
Tomorrow will be .
, % of the Moon is Illuminated

Today's Extremes

State Highs State Lows

Community

WunderPhotos

Upload Photos

1,801,122 photos uploaded!

WunderBlogs® & News

Nearby

Air Quality

  Air Quality AQ Index Pollutant
Not available.

Snow Depth

Station Depth Elevation

Earthquake Activity

City Distance Mag. Time & Date
Minimum magnitude displayed is 2.5.

Coastal Water Temperatures

Place Temperature

Nearby Weather Stations